Amy C. Mc Allister — WCZ9520 — position and weather

sailwx.info

Track history (hours):
 
Tides and Currents Weather Stations Pressure Air Temp Water Temp Dewpoint Dewpoint Depression Visibility Wind Speed Wind Dir Waves Ship Positions

Amy C. Mc Allister

Owner: MC ALLISTER TOWING & TRANSPORTATION INC, NEW YORK, NY. More information available from US FCC via Universal Licensing System and Coast Guard Vessel Documentation Center.

Last reported at 2016-Feb-07 23:16 UTC. Time now 2016-Feb-08 10:19 UTC.
Position N 40°48' W 073°59'.

Length 27 m; draft 4.9 m.

Type: Towing. MMSI: 366995040.

Date/timePositionNaut miles runAvg speedWind from/ knotsBaromVisibWave heightAir tempDewpointWater temp
2016-Feb-07 23:16N 40°48' W 073°59'5 7.4
2016-Feb-07 22:33N 40°43' W 074°01'6 5.9
2016-Feb-07 21:33N 40°39' W 074°06'5 4.6
2016-Feb-07 20:33N 40°38' W 074°12'0 0.1
2016-Feb-07 19:33N 40°38' W 074°12'0 0.0
2016-Feb-07 18:33N 40°38' W 074°12'2 1.8
2016-Feb-07 17:33N 40°38' W 074°10'0 0.0
2016-Feb-07 16:33N 40°38' W 074°10'0 0.0
2016-Feb-07 15:33N 40°38' W 074°10'0 0.0
2016-Feb-07 14:32N 40°38' W 074°10'0 0.0
2016-Feb-07 13:33N 40°38' W 074°10'0 0.0
2016-Feb-07 12:33N 40°38' W 074°10'0 0.0
2016-Feb-07 11:33N 40°38' W 074°10'1 1.4
2016-Feb-07 10:33N 40°38' W 074°12'3 3.1
2016-Feb-07 09:30N 40°35' W 074°13'2 2.5
2016-Feb-07 08:31N 40°38' W 074°12'2 1.4
2016-Feb-07 07:03N 40°38' W 074°10'0 0.0
2016-Feb-07 06:33N 40°38' W 074°10'0 0.0
2016-Feb-07 05:15N 40°38' W 074°10'0 0.0
2016-Feb-07 04:33N 40°38' W 074°10'0 0.0
2016-Feb-07 03:33N 40°38' W 074°10'0 0.0
2016-Feb-07 02:32N 40°38' W 074°10'0 0.0
2016-Feb-07 01:21N 40°38' W 074°10'0 0.0
2016-Feb-07 00:25N 40°38' W 074°10'1 1.1
2016-Feb-06 23:31N 40°39' W 074°11'6 5.7
2016-Feb-06 22:33N 40°40' W 074°04'4 3.5
2016-Feb-06 21:33N 40°39' W 074°08'2 2.0
2016-Feb-06 20:33N 40°41' W 074°08'3 3.1
2016-Feb-06 19:33N 40°40' W 074°04'1 0.6
2016-Feb-06 18:34N 40°40' W 074°03'1 0.6
2016-Feb-06 17:33N 40°40' W 074°04'0 0.0
2016-Feb-06 16:33N 40°40' W 074°04'0 0.0
2016-Feb-06 15:33N 40°40' W 074°04'5 5.3
2016-Feb-06 14:33N 40°43' W 073°58'2 1.1
2016-Feb-06 12:33N 40°45' W 073°58'6 6.4
2016-Feb-06 11:33N 40°40' W 074°03'3 3.0
2016-Feb-06 10:33N 40°39' W 074°07'2 1.8
2016-Feb-06 09:09N 40°38' W 074°10'0 0.0
2016-Feb-06 07:11N 40°38' W 074°10'0 0.0
2016-Feb-06 06:33N 40°38' W 074°10'0 0.0
2016-Feb-06 05:15N 40°38' W 074°10'0 0.0
2016-Feb-06 04:20N 40°38' W 074°10'0 0.0
2016-Feb-06 03:32N 40°38' W 074°10'0 0.0
2016-Feb-06 02:32N 40°38' W 074°10'0 0.0
2016-Feb-06 01:33N 40°38' W 074°10'0 0.0
2016-Feb-06 00:33N 40°38' W 074°10'2 0.9
2016-Feb-05 22:33N 40°39' W 074°07'1 1.3
2016-Feb-05 21:33N 40°40' W 074°09'2 2.0
2016-Feb-05 20:33N 40°39' W 074°11'1 1.2
2016-Feb-05 19:33N 40°38' W 074°12'2 1.6
2016-Feb-05 18:33N 40°39' W 074°10'1 0.6
2016-Feb-05 17:33N 40°38' W 074°10'0 0.0
2016-Feb-05 16:13N 40°38' W 074°10'0 0.0
2016-Feb-05 15:33N 40°38' W 074°10'3 3.1
2016-Feb-05 14:29N 40°36' W 074°12'2 0.2
2016-Feb-05 01:33N 40°38' W 074°12'2 1.6
2016-Feb-05 00:33N 40°39' W 074°10'3 2.8
2016-Feb-04 23:25N 40°41' W 074°08'1 0.8
2016-Feb-04 22:34N 40°41' W 074°08'3 0.9
2016-Feb-04 19:33N 40°38' W 074°10'0 0.2
2016-Feb-04 18:31N 40°38' W 074°10'0 0.0
2016-Feb-04 17:30N 40°38' W 074°10'0 0.0
2016-Feb-04 16:32N 40°38' W 074°10'0 0.0
2016-Feb-04 15:32N 40°38' W 074°10'0 0.0
2016-Feb-04 14:33N 40°38' W 074°10'1 0.9
2016-Feb-04 13:31N 40°39' W 074°11'4 4.0
2016-Feb-04 12:33N 40°39' W 074°06'2 1.6
2016-Feb-04 11:33N 40°40' W 074°05'4 4.2
2016-Feb-04 10:33N 40°38' W 074°10'3 2.5
2016-Feb-04 09:28N 40°37' W 074°12'1 1.6
2016-Feb-04 08:33N 40°38' W 074°12'2 0.6
2016-Feb-04 05:30N 40°38' W 074°10'0 0.0
2016-Feb-04 01:30N 40°38' W 074°10'3 3.6
2016-Feb-04 00:33N 40°39' W 074°05'0 0.0
2016-Feb-03 23:33N 40°39' W 074°05'1 1.3
2016-Feb-03 22:33N 40°40' W 074°05'1 1.2
2016-Feb-03 21:33N 40°39' W 074°05'5 4.8
2016-Feb-03 20:33N 40°39' W 074°11'2 2.4
2016-Feb-03 19:33N 40°36' W 074°12'4 4.2
2016-Feb-03 18:33N 40°39' W 074°08'6 5.9
2016-Feb-03 17:33N 40°40' W 074°00'6 5.6
2016-Feb-03 16:33N 40°39' W 074°07'2 1.8
2016-Feb-03 15:30N 40°38' W 074°10'0 0.0
2016-Feb-03 12:14N 40°38' W 074°10'2 3.1
2016-Feb-03 11:33N 40°40' W 074°08'2 2.3
2016-Feb-03 10:33N 40°39' W 074°06'0 0.4
2016-Feb-03 09:33N 40°39' W 074°07'2 2.4
2016-Feb-03 08:32N 40°38' W 074°10'0 0.2
2016-Feb-03 07:33N 40°39' W 074°10'1 0.6
2016-Feb-03 06:33N 40°39' W 074°09'4 3.6
2016-Feb-03 05:33N 40°40' W 074°05'4 0.8
2016-Feb-03 00:08N 40°38' W 074°10'0 0.0
2016-Feb-02 22:31N 40°38' W 074°10'0 0.0
2016-Feb-02 21:33N 40°38' W 074°10'0 0.0
2016-Feb-02 18:16N 40°38' W 074°10'0 0.0
2016-Feb-02 16:33N 40°38' W 074°10'5 4.6
2016-Feb-02 15:33N 40°40' W 074°04'0 0.0
2016-Feb-02 14:33N 40°40' W 074°04'0 0.3
2016-Feb-02 13:33N 40°40' W 074°04'1 0.9
2016-Feb-02 12:33N 40°39' W 074°03'1 0.6
2016-Feb-02 11:33N 40°39' W 074°03'2 2.1
2016-Feb-02 10:33N 40°40' W 074°05'0 0.0
2016-Feb-02 09:33N 40°40' W 074°05'0 0.0
2016-Feb-02 08:33N 40°40' W 074°05'0 0.0
2016-Feb-02 07:33N 40°40' W 074°05'0 0.0
2016-Feb-02 06:33N 40°40' W 074°05'0 0.0
2016-Feb-02 05:33N 40°40' W 074°05'0 0.0
2016-Feb-02 04:33N 40°40' W 074°05'0 0.0
2016-Feb-02 03:33N 40°40' W 074°05'0 0.0
2016-Feb-02 02:33N 40°40' W 074°05'5 5.3
2016-Feb-02 01:33N 40°42' W 073°59'0 0.2
2016-Feb-02 00:33N 40°42' W 073°58'0 0.0
2016-Feb-01 23:33N 40°42' W 073°58'0 0.0
2016-Feb-01 22:33N 40°42' W 073°58'0 0.0
2016-Feb-01 21:33N 40°42' W 073°58'0 0.2
2016-Feb-01 20:33N 40°43' W 073°58'4 3.6
2016-Feb-01 19:33N 40°40' W 074°02'4 3.6
2016-Feb-01 18:33N 40°42' W 073°58'0 0.0
2016-Feb-01 17:33N 40°42' W 073°58'2 2.1
2016-Feb-01 16:33N 40°45' W 073°58'1 0.6
2016-Feb-01 14:33N 40°43' W 073°58'7 6.8
2016-Feb-01 13:33N 40°39' W 074°05'3 3.5
2016-Feb-01 12:33N 40°38' W 074°10'3 3.2
2016-Feb-01 11:33N 40°42' W 074°08'2 1.6
2016-Feb-01 10:33N 40°40' W 074°08'2 1.6
2016-Feb-01 09:33N 40°42' W 074°08'0 0.0
2016-Feb-01 08:33N 40°42' W 074°08'0 0.0
2016-Feb-01 07:33N 40°42' W 074°08'1 1.2
2016-Feb-01 06:33N 40°42' W 074°07'0 0.1
2016-Feb-01 05:33N 40°42' W 074°07'1 1.1
2016-Feb-01 04:33N 40°42' W 074°08'0 0.0
2016-Feb-01 03:33N 40°42' W 074°08'1 1.1
2016-Feb-01 02:33N 40°42' W 074°07'3 2.9
2016-Feb-01 01:29N 40°40' W 074°09'0 0.0
2016-Feb-01 00:33N 40°40' W 074°09'3 2.8
2016-Jan-31 23:33N 40°39' W 074°05'1 1.4
2016-Jan-31 22:33N 40°40' W 074°05'2 1.6
2016-Jan-31 21:33N 40°39' W 074°03'2 1.7
2016-Jan-31 20:33N 40°40' W 074°05'0 0.0
2016-Jan-31 19:33N 40°40' W 074°05'1 0.9
2016-Jan-31 18:33N 40°40' W 074°04'2 2.3
2016-Jan-31 17:33N 40°39' W 074°07'3 2.7
2016-Jan-31 16:27N 40°39' W 074°11'6 6.9
2016-Jan-31 15:33N 40°38' W 074°03'5 5.3
2016-Jan-31 14:33N 40°38' W 074°10'0 0.0
2016-Jan-31 13:30N 40°38' W 074°10'0 0.0
2016-Jan-31 12:31N 40°38' W 074°10'1 1.1
2016-Jan-31 11:33N 40°39' W 074°09'1 1.3
2016-Jan-31 10:33N 40°40' W 074°08'0 0.0
2016-Jan-31 09:33N 40°40' W 074°08'2 1.9
2016-Jan-31 08:33N 40°39' W 074°07'5 4.7
2016-Jan-31 07:33N 40°36' W 074°02'4 4.2
2016-Jan-31 06:33N 40°40' W 074°04'1 1.1
2016-Jan-31 05:33N 40°40' W 074°05'0 0.0
2016-Jan-31 04:33N 40°40' W 074°05'0 0.0
2016-Jan-31 03:33N 40°40' W 074°05'0 0.0
2016-Jan-31 02:33N 40°40' W 074°05'0 0.0
2016-Jan-31 01:33N 40°40' W 074°05'0 0.0
2016-Jan-31 00:33N 40°40' W 074°05'0 0.0
2016-Jan-30 23:33N 40°40' W 074°05'0 0.0
2016-Jan-30 22:33N 40°40' W 074°05'0 0.0
2016-Jan-30 21:33N 40°40' W 074°05'0 0.0
2016-Jan-30 20:33N 40°40' W 074°05'0 0.2
2016-Jan-30 19:33N 40°40' W 074°05'2 2.5
2016-Jan-30 18:33N 40°41' W 074°08'0 0.3
2016-Jan-30 17:33N 40°41' W 074°08'3 2.8
2016-Jan-30 16:33N 40°39' W 074°08'3 3.0
2016-Jan-30 15:33N 40°39' W 074°04'5 4.5
2016-Jan-30 14:33N 40°38' W 074°10'2 2.4
2016-Jan-30 13:33N 40°41' W 074°08'1 0.7
2016-Jan-30 12:33N 40°41' W 074°08'2 1.7
2016-Jan-30 11:33N 40°40' W 074°09'0 0.0
2016-Jan-30 10:33N 40°40' W 074°09'0 0.0
2016-Jan-30 09:33N 40°40' W 074°09'0 0.0
2016-Jan-30 08:33N 40°40' W 074°09'0 0.0
2016-Jan-30 07:32N 40°40' W 074°09'0 0.1
2016-Jan-30 06:33N 40°40' W 074°09'0 0.0
2016-Jan-30 05:25N 40°40' W 074°09'0 0.0
2016-Jan-30 04:33N 40°40' W 074°09'0 0.0
2016-Jan-30 03:25N 40°40' W 074°09'0 0.0
2016-Jan-30 02:31N 40°40' W 074°09'0 0.0
2016-Jan-30 01:33N 40°40' W 074°09'0 0.0
2016-Jan-30 00:33N 40°40' W 074°09'0 0.0
2016-Jan-29 23:33N 40°40' W 074°09'0 0.0
2016-Jan-29 22:33N 40°40' W 074°09'1 1.0
2016-Jan-29 21:33N 40°40' W 074°08'0 0.0
2016-Jan-29 20:33N 40°40' W 074°08'3 2.5
2016-Jan-29 19:33N 40°39' W 074°06'1 1.4
2016-Jan-29 18:33N 40°40' W 074°04'1 0.8
2016-Jan-29 17:33N 40°40' W 074°05'1 1.2
2016-Jan-29 16:33N 40°39' W 074°05'5 4.6
2016-Jan-29 15:33N 40°41' W 074°00'4 4.1
2016-Jan-29 14:33N 40°39' W 074°04'4 4.1
2016-Jan-29 13:33N 40°38' W 074°10'0 0.0
2016-Jan-29 12:33N 40°38' W 074°10'0 0.0
2016-Jan-29 11:33N 40°38' W 074°10'0 0.0
2016-Jan-29 10:33N 40°38' W 074°10'0 0.0
2016-Jan-29 09:33N 40°38' W 074°10'0 0.0
2016-Jan-29 08:33N 40°38' W 074°10'0 0.0
2016-Jan-29 07:33N 40°38' W 074°10'0 0.0
2016-Jan-29 06:33N 40°38' W 074°10'2 1.8
2016-Jan-29 05:33N 40°38' W 074°12'1 0.9
2016-Jan-29 04:33N 40°39' W 074°11'5 5.1
2016-Jan-29 03:33N 40°39' W 074°05'1 1.0
2016-Jan-29 02:33N 40°40' W 074°04'0 0.0
2016-Jan-29 01:33N 40°40' W 074°04'1 0.8
2016-Jan-29 00:33N 40°40' W 074°04'1 1.3
2016-Jan-28 23:33N 40°40' W 074°05'  
Track history (hours):
 
Tides and Currents Weather Stations Pressure Air Temp Water Temp Dewpoint Dewpoint Depression Visibility Wind Speed Wind Dir Waves Ship Positions

Amy C. Mc Allister

Owner: MC ALLISTER TOWING & TRANSPORTATION INC, NEW YORK, NY. More information available from US FCC via Universal Licensing System and Coast Guard Vessel Documentation Center.

Last reported at 2016-Feb-07 23:16 UTC. Time now 2016-Feb-08 10:19 UTC.
Position N 40°48' W 073°59'.

Length 27 m; draft 4.9 m.

Type: Towing. MMSI: 366995040.

Date/timePositionNaut miles runAvg speedWind from/ knotsBaromVisibWave heightAir tempDewpointWater temp
2016-Feb-07 23:16N 40°48' W 073°59'5 7.4
2016-Feb-07 22:33N 40°43' W 074°01'6 5.9
2016-Feb-07 21:33N 40°39' W 074°06'5 4.6
2016-Feb-07 20:33N 40°38' W 074°12'0 0.1
2016-Feb-07 19:33N 40°38' W 074°12'0 0.0
2016-Feb-07 18:33N 40°38' W 074°12'2 1.8
2016-Feb-07 17:33N 40°38' W 074°10'0 0.0
2016-Feb-07 16:33N 40°38' W 074°10'0 0.0
2016-Feb-07 15:33N 40°38' W 074°10'0 0.0
2016-Feb-07 14:32N 40°38' W 074°10'0 0.0
2016-Feb-07 13:33N 40°38' W 074°10'0 0.0
2016-Feb-07 12:33N 40°38' W 074°10'0 0.0
2016-Feb-07 11:33N 40°38' W 074°10'1 1.4
2016-Feb-07 10:33N 40°38' W 074°12'3 3.1
2016-Feb-07 09:30N 40°35' W 074°13'2 2.5
2016-Feb-07 08:31N 40°38' W 074°12'2 1.4
2016-Feb-07 07:03N 40°38' W 074°10'0 0.0
2016-Feb-07 06:33N 40°38' W 074°10'0 0.0
2016-Feb-07 05:15N 40°38' W 074°10'0 0.0
2016-Feb-07 04:33N 40°38' W 074°10'0 0.0
2016-Feb-07 03:33N 40°38' W 074°10'0 0.0
2016-Feb-07 02:32N 40°38' W 074°10'0 0.0
2016-Feb-07 01:21N 40°38' W 074°10'0 0.0
2016-Feb-07 00:25N 40°38' W 074°10'1 1.1
2016-Feb-06 23:31N 40°39' W 074°11'6 5.7
2016-Feb-06 22:33N 40°40' W 074°04'4 3.5
2016-Feb-06 21:33N 40°39' W 074°08'2 2.0
2016-Feb-06 20:33N 40°41' W 074°08'3 3.1
2016-Feb-06 19:33N 40°40' W 074°04'1 0.6
2016-Feb-06 18:34N 40°40' W 074°03'1 0.6
2016-Feb-06 17:33N 40°40' W 074°04'0 0.0
2016-Feb-06 16:33N 40°40' W 074°04'0 0.0
2016-Feb-06 15:33N 40°40' W 074°04'5 5.3
2016-Feb-06 14:33N 40°43' W 073°58'2 1.1
2016-Feb-06 12:33N 40°45' W 073°58'6 6.4
2016-Feb-06 11:33N 40°40' W 074°03'3 3.0
2016-Feb-06 10:33N 40°39' W 074°07'2 1.8
2016-Feb-06 09:09N 40°38' W 074°10'0 0.0
2016-Feb-06 07:11N 40°38' W 074°10'0 0.0
2016-Feb-06 06:33N 40°38' W 074°10'0 0.0
2016-Feb-06 05:15N 40°38' W 074°10'0 0.0
2016-Feb-06 04:20N 40°38' W 074°10'0 0.0
2016-Feb-06 03:32N 40°38' W 074°10'0 0.0
2016-Feb-06 02:32N 40°38' W 074°10'0 0.0
2016-Feb-06 01:33N 40°38' W 074°10'0 0.0
2016-Feb-06 00:33N 40°38' W 074°10'2 0.9
2016-Feb-05 22:33N 40°39' W 074°07'1 1.3
2016-Feb-05 21:33N 40°40' W 074°09'2 2.0
2016-Feb-05 20:33N 40°39' W 074°11'1 1.2
2016-Feb-05 19:33N 40°38' W 074°12'2 1.6
2016-Feb-05 18:33N 40°39' W 074°10'1 0.6
2016-Feb-05 17:33N 40°38' W 074°10'0 0.0
2016-Feb-05 16:13N 40°38' W 074°10'0 0.0
2016-Feb-05 15:33N 40°38' W 074°10'3 3.1
2016-Feb-05 14:29N 40°36' W 074°12'2 0.2
2016-Feb-05 01:33N 40°38' W 074°12'2 1.6
2016-Feb-05 00:33N 40°39' W 074°10'3 2.8
2016-Feb-04 23:25N 40°41' W 074°08'1 0.8
2016-Feb-04 22:34N 40°41' W 074°08'3 0.9
2016-Feb-04 19:33N 40°38' W 074°10'0 0.2
2016-Feb-04 18:31N 40°38' W 074°10'0 0.0
2016-Feb-04 17:30N 40°38' W 074°10'0 0.0
2016-Feb-04 16:32N 40°38' W 074°10'0 0.0
2016-Feb-04 15:32N 40°38' W 074°10'0 0.0
2016-Feb-04 14:33N 40°38' W 074°10'1 0.9
2016-Feb-04 13:31N 40°39' W 074°11'4 4.0
2016-Feb-04 12:33N 40°39' W 074°06'2 1.6
2016-Feb-04 11:33N 40°40' W 074°05'4 4.2
2016-Feb-04 10:33N 40°38' W 074°10'3 2.5
2016-Feb-04 09:28N 40°37' W 074°12'1 1.6
2016-Feb-04 08:33N 40°38' W 074°12'2 0.6
2016-Feb-04 05:30N 40°38' W 074°10'0 0.0
2016-Feb-04 01:30N 40°38' W 074°10'3 3.6
2016-Feb-04 00:33N 40°39' W 074°05'0 0.0
2016-Feb-03 23:33N 40°39' W 074°05'1 1.3
2016-Feb-03 22:33N 40°40' W 074°05'1 1.2
2016-Feb-03 21:33N 40°39' W 074°05'5 4.8
2016-Feb-03 20:33N 40°39' W 074°11'2 2.4
2016-Feb-03 19:33N 40°36' W 074°12'4 4.2
2016-Feb-03 18:33N 40°39' W 074°08'6 5.9
2016-Feb-03 17:33N 40°40' W 074°00'6 5.6
2016-Feb-03 16:33N 40°39' W 074°07'2 1.8
2016-Feb-03 15:30N 40°38' W 074°10'0 0.0
2016-Feb-03 12:14N 40°38' W 074°10'2 3.1
2016-Feb-03 11:33N 40°40' W 074°08'2 2.3
2016-Feb-03 10:33N 40°39' W 074°06'0 0.4
2016-Feb-03 09:33N 40°39' W 074°07'2 2.4
2016-Feb-03 08:32N 40°38' W 074°10'0 0.2
2016-Feb-03 07:33N 40°39' W 074°10'1 0.6
2016-Feb-03 06:33N 40°39' W 074°09'4 3.6
2016-Feb-03 05:33N 40°40' W 074°05'4 0.8
2016-Feb-03 00:08N 40°38' W 074°10'0 0.0
2016-Feb-02 22:31N 40°38' W 074°10'0 0.0
2016-Feb-02 21:33N 40°38' W 074°10'0 0.0
2016-Feb-02 18:16N 40°38' W 074°10'0 0.0
2016-Feb-02 16:33N 40°38' W 074°10'5 4.6
2016-Feb-02 15:33N 40°40' W 074°04'0 0.0
2016-Feb-02 14:33N 40°40' W 074°04'0 0.3
2016-Feb-02 13:33N 40°40' W 074°04'1 0.9
2016-Feb-02 12:33N 40°39' W 074°03'1 0.6
2016-Feb-02 11:33N 40°39' W 074°03'2 2.1
2016-Feb-02 10:33N 40°40' W 074°05'0 0.0
2016-Feb-02 09:33N 40°40' W 074°05'0 0.0
2016-Feb-02 08:33N 40°40' W 074°05'0 0.0
2016-Feb-02 07:33N 40°40' W 074°05'0 0.0
2016-Feb-02 06:33N 40°40' W 074°05'0 0.0
2016-Feb-02 05:33N 40°40' W 074°05'0 0.0
2016-Feb-02 04:33N 40°40' W 074°05'0 0.0
2016-Feb-02 03:33N 40°40' W 074°05'0 0.0
2016-Feb-02 02:33N 40°40' W 074°05'5 5.3
2016-Feb-02 01:33N 40°42' W 073°59'0 0.2
2016-Feb-02 00:33N 40°42' W 073°58'0 0.0
2016-Feb-01 23:33N 40°42' W 073°58'0 0.0
2016-Feb-01 22:33N 40°42' W 073°58'0 0.0
2016-Feb-01 21:33N 40°42' W 073°58'0 0.2
2016-Feb-01 20:33N 40°43' W 073°58'4 3.6
2016-Feb-01 19:33N 40°40' W 074°02'4 3.6
2016-Feb-01 18:33N 40°42' W 073°58'0 0.0
2016-Feb-01 17:33N 40°42' W 073°58'2 2.1
2016-Feb-01 16:33N 40°45' W 073°58'1 0.6
2016-Feb-01 14:33N 40°43' W 073°58'7 6.8
2016-Feb-01 13:33N 40°39' W 074°05'3 3.5
2016-Feb-01 12:33N 40°38' W 074°10'3 3.2
2016-Feb-01 11:33N 40°42' W 074°08'2 1.6
2016-Feb-01 10:33N 40°40' W 074°08'2 1.6
2016-Feb-01 09:33N 40°42' W 074°08'0 0.0
2016-Feb-01 08:33N 40°42' W 074°08'0 0.0
2016-Feb-01 07:33N 40°42' W 074°08'1 1.2
2016-Feb-01 06:33N 40°42' W 074°07'0 0.1
2016-Feb-01 05:33N 40°42' W 074°07'1 1.1
2016-Feb-01 04:33N 40°42' W 074°08'0 0.0
2016-Feb-01 03:33N 40°42' W 074°08'1 1.1
2016-Feb-01 02:33N 40°42' W 074°07'3 2.9
2016-Feb-01 01:29N 40°40' W 074°09'0 0.0
2016-Feb-01 00:33N 40°40' W 074°09'3 2.8
2016-Jan-31 23:33N 40°39' W 074°05'1 1.4
2016-Jan-31 22:33N 40°40' W 074°05'2 1.6
2016-Jan-31 21:33N 40°39' W 074°03'2 1.7
2016-Jan-31 20:33N 40°40' W 074°05'0 0.0
2016-Jan-31 19:33N 40°40' W 074°05'1 0.9
2016-Jan-31 18:33N 40°40' W 074°04'2 2.3
2016-Jan-31 17:33N 40°39' W 074°07'3 2.7
2016-Jan-31 16:27N 40°39' W 074°11'6 6.9
2016-Jan-31 15:33N 40°38' W 074°03'5 5.3
2016-Jan-31 14:33N 40°38' W 074°10'0 0.0
2016-Jan-31 13:30N 40°38' W 074°10'0 0.0
2016-Jan-31 12:31N 40°38' W 074°10'1 1.1
2016-Jan-31 11:33N 40°39' W 074°09'1 1.3
2016-Jan-31 10:33N 40°40' W 074°08'0 0.0
2016-Jan-31 09:33N 40°40' W 074°08'2 1.9
2016-Jan-31 08:33N 40°39' W 074°07'5 4.7
2016-Jan-31 07:33N 40°36' W 074°02'4 4.2
2016-Jan-31 06:33N 40°40' W 074°04'1 1.1
2016-Jan-31 05:33N 40°40' W 074°05'0 0.0
2016-Jan-31 04:33N 40°40' W 074°05'0 0.0
2016-Jan-31 03:33N 40°40' W 074°05'0 0.0
2016-Jan-31 02:33N 40°40' W 074°05'0 0.0
2016-Jan-31 01:33N 40°40' W 074°05'0 0.0
2016-Jan-31 00:33N 40°40' W 074°05'0 0.0
2016-Jan-30 23:33N 40°40' W 074°05'0 0.0
2016-Jan-30 22:33N 40°40' W 074°05'0 0.0
2016-Jan-30 21:33N 40°40' W 074°05'0 0.0
2016-Jan-30 20:33N 40°40' W 074°05'0 0.2
2016-Jan-30 19:33N 40°40' W 074°05'2 2.5
2016-Jan-30 18:33N 40°41' W 074°08'0 0.3
2016-Jan-30 17:33N 40°41' W 074°08'3 2.8
2016-Jan-30 16:33N 40°39' W 074°08'3 3.0
2016-Jan-30 15:33N 40°39' W 074°04'5 4.5
2016-Jan-30 14:33N 40°38' W 074°10'2 2.4
2016-Jan-30 13:33N 40°41' W 074°08'1 0.7
2016-Jan-30 12:33N 40°41' W 074°08'2 1.7
2016-Jan-30 11:33N 40°40' W 074°09'0 0.0
2016-Jan-30 10:33N 40°40' W 074°09'0 0.0
2016-Jan-30 09:33N 40°40' W 074°09'0 0.0
2016-Jan-30 08:33N 40°40' W 074°09'0 0.0
2016-Jan-30 07:32N 40°40' W 074°09'0 0.1
2016-Jan-30 06:33N 40°40' W 074°09'0 0.0
2016-Jan-30 05:25N 40°40' W 074°09'0 0.0
2016-Jan-30 04:33N 40°40' W 074°09'0 0.0
2016-Jan-30 03:25N 40°40' W 074°09'0 0.0
2016-Jan-30 02:31N 40°40' W 074°09'0 0.0
2016-Jan-30 01:33N 40°40' W 074°09'0 0.0
2016-Jan-30 00:33N 40°40' W 074°09'0 0.0
2016-Jan-29 23:33N 40°40' W 074°09'0 0.0
2016-Jan-29 22:33N 40°40' W 074°09'1 1.0
2016-Jan-29 21:33N 40°40' W 074°08'0 0.0
2016-Jan-29 20:33N 40°40' W 074°08'3 2.5
2016-Jan-29 19:33N 40°39' W 074°06'1 1.4
2016-Jan-29 18:33N 40°40' W 074°04'1 0.8
2016-Jan-29 17:33N 40°40' W 074°05'1 1.2
2016-Jan-29 16:33N 40°39' W 074°05'5 4.6
2016-Jan-29 15:33N 40°41' W 074°00'4 4.1
2016-Jan-29 14:33N 40°39' W 074°04'4 4.1
2016-Jan-29 13:33N 40°38' W 074°10'0 0.0
2016-Jan-29 12:33N 40°38' W 074°10'0 0.0
2016-Jan-29 11:33N 40°38' W 074°10'0 0.0
2016-Jan-29 10:33N 40°38' W 074°10'0 0.0
2016-Jan-29 09:33N 40°38' W 074°10'0 0.0
2016-Jan-29 08:33N 40°38' W 074°10'0 0.0
2016-Jan-29 07:33N 40°38' W 074°10'0 0.0
2016-Jan-29 06:33N 40°38' W 074°10'2 1.8
2016-Jan-29 05:33N 40°38' W 074°12'1 0.9
2016-Jan-29 04:33N 40°39' W 074°11'5 5.1
2016-Jan-29 03:33N 40°39' W 074°05'1 1.0
2016-Jan-29 02:33N 40°40' W 074°04'0 0.0
2016-Jan-29 01:33N 40°40' W 074°04'1 0.8
2016-Jan-29 00:33N 40°40' W 074°04'1 1.3
2016-Jan-28 23:33N 40°40' W 074°05'  

Dump ship's entire track history